createdAt,value
2023-04-25T00:00:25.235Z,21.50
2023-04-25T00:03:13.042Z,18.42
2023-04-25T00:05:41.891Z,20.08
2023-04-25T00:08:09.536Z,19.15
2023-04-25T00:10:37.774Z,19.30
2023-04-25T00:13:05.880Z,19.20
2023-04-25T00:15:33.984Z,19.73
2023-04-25T00:18:01.530Z,16.88
2023-04-25T00:20:29.870Z,17.17
2023-04-25T00:22:57.425Z,20.53
2023-04-25T00:25:25.414Z,22.25
2023-04-25T00:27:53.102Z,22.80
2023-04-25T00:30:21.274Z,20.85
2023-04-25T00:32:50.153Z,19.80
2023-04-25T00:35:18.448Z,20.83
2023-04-25T00:37:46.615Z,22.27
2023-04-25T00:40:15.349Z,19.60
2023-04-25T00:42:43.289Z,19.98
2023-04-25T00:45:15.728Z,20.58
2023-04-25T00:47:43.989Z,22.83
2023-04-25T00:50:12.244Z,22.05
2023-04-25T00:52:42.979Z,19.17
2023-04-25T00:55:13.515Z,18.52
2023-04-25T00:57:42.005Z,18.70
2023-04-25T01:00:12.372Z,18.90
2023-04-25T01:02:41.199Z,16.85
2023-04-25T01:05:10.310Z,18.00
2023-04-25T01:07:42.113Z,19.75
2023-04-25T01:10:10.702Z,18.58
2023-04-25T01:12:38.938Z,16.87
2023-04-25T01:15:07.942Z,18.33
2023-04-25T01:17:37.169Z,18.58
2023-04-25T01:20:06.746Z,20.42
2023-04-25T01:22:34.648Z,21.02
2023-04-25T01:25:03.417Z,21.03
2023-04-25T01:27:31.826Z,20.27
2023-04-25T01:30:00.867Z,18.85
2023-04-25T01:32:29.037Z,18.40
2023-04-25T01:34:57.124Z,19.08
2023-04-25T01:37:25.028Z,20.30
2023-04-25T01:39:54.010Z,21.67
2023-04-25T01:42:21.670Z,26.10
2023-04-25T01:44:50.020Z,24.08
2023-04-25T01:47:17.791Z,20.15
2023-04-25T01:49:46.931Z,20.23
2023-04-25T01:52:14.562Z,18.77
2023-04-25T01:54:45.451Z,20.15
2023-04-25T01:57:14.459Z,22.35
2023-04-25T01:59:45.152Z,18.95
2023-04-25T02:02:31.481Z,23.43
2023-04-25T02:04:59.744Z,20.58
2023-04-25T02:07:29.536Z,22.02
2023-04-25T02:09:58.274Z,22.02
2023-04-25T02:12:28.923Z,20.33
2023-04-25T02:15:16.128Z,18.20
2023-04-25T02:17:57.258Z,21.80
2023-04-25T02:20:26.157Z,22.35
2023-04-25T02:22:54.469Z,20.20
2023-04-25T02:25:22.635Z,23.33
2023-04-25T02:27:50.612Z,19.73
2023-04-25T02:30:18.772Z,21.45
2023-04-25T02:32:46.938Z,20.90
2023-04-25T02:35:15.210Z,20.10
2023-04-25T02:37:43.787Z,20.17
2023-04-25T02:40:12.390Z,19.93
2023-04-25T02:42:40.090Z,20.05
2023-04-25T02:45:11.952Z,19.92
2023-04-25T02:47:39.703Z,20.58
2023-04-25T02:50:09.933Z,20.98
2023-04-25T02:52:39.051Z,23.43
2023-04-25T02:55:17.347Z,19.05
2023-04-25T02:57:46.429Z,19.13
2023-04-25T03:00:21.745Z,19.38
2023-04-25T03:02:49.641Z,19.33
2023-04-25T03:05:18.285Z,21.07
2023-04-25T03:07:47.436Z,21.05
2023-04-25T03:10:15.488Z,21.52
2023-04-25T03:12:44.456Z,20.20
2023-04-25T03:15:12.712Z,28.35
2023-04-25T03:17:40.866Z,19.03
2023-04-25T03:20:09.829Z,20.20
2023-04-25T03:22:38.257Z,19.60
2023-04-25T03:25:10.036Z,21.98
2023-04-25T03:27:37.864Z,19.80
2023-04-25T03:30:06.796Z,19.30
2023-04-25T03:32:36.158Z,18.90
2023-04-25T03:35:04.908Z,19.08
2023-04-25T03:37:33.295Z,20.75
2023-04-25T03:40:01.579Z,17.95
2023-04-25T03:42:47.690Z,21.23
2023-04-25T03:45:17.093Z,21.73
2023-04-25T03:47:44.781Z,19.65
2023-04-25T03:50:12.997Z,20.75
2023-04-25T03:52:42.780Z,17.70
2023-04-25T03:55:11.755Z,18.10
2023-04-25T03:57:46.272Z,20.90
2023-04-25T04:00:15.488Z,19.50
2023-04-25T04:02:45.340Z,18.42
2023-04-25T04:05:14.731Z,17.90
2023-04-25T04:07:49.527Z,20.30
2023-04-25T04:10:19.077Z,18.25
2023-04-25T04:12:47.218Z,16.55
2023-04-25T04:15:15.508Z,17.60
2023-04-25T04:17:51.167Z,18.33
2023-04-25T04:20:20.191Z,21.93
2023-04-25T04:22:48.554Z,17.58
2023-04-25T04:25:18.168Z,17.60
2023-04-25T04:28:15.621Z,18.63
2023-04-25T04:31:07.169Z,18.05
2023-04-25T04:33:35.012Z,16.97
2023-04-25T04:36:05.624Z,17.38
2023-04-25T04:38:33.629Z,16.73
2023-04-25T04:41:04.994Z,17.90
2023-04-25T04:43:42.061Z,20.02
2023-04-25T04:46:25.996Z,22.97
2023-04-25T04:49:15.287Z,20.02
2023-04-25T04:51:52.659Z,19.90
2023-04-25T04:54:39.051Z,18.48
2023-04-25T04:57:17.882Z,20.38
2023-04-25T04:59:58.805Z,18.70
2023-04-25T05:02:46.009Z,17.70
2023-04-25T05:05:47.516Z,18.50
2023-04-25T05:08:32.120Z,20.77
2023-04-25T05:11:18.890Z,16.98
2023-04-25T05:14:09.745Z,20.77
2023-04-25T05:17:08.008Z,20.00
2023-04-25T05:19:49.134Z,17.48
2023-04-25T05:22:25.116Z,17.25
2023-04-25T05:25:11.724Z,18.23
2023-04-25T05:28:14.407Z,20.63
2023-04-25T05:30:56.898Z,23.73
2023-04-25T05:33:39.676Z,20.88
2023-04-25T05:36:09.088Z,22.75
2023-04-25T05:38:36.908Z,19.40
2023-04-25T05:41:41.728Z,18.40
2023-04-25T05:44:28.183Z,18.52
2023-04-25T05:47:31.915Z,19.33
2023-04-25T05:50:20.131Z,24.98
2023-04-25T05:52:57.530Z,19.75
2023-04-25T05:55:30.388Z,20.30
2023-04-25T05:58:00.456Z,22.00
2023-04-25T06:00:28.389Z,22.70
2023-04-25T06:02:57.481Z,22.90
2023-04-25T06:05:25.608Z,28.52
2023-04-25T06:07:53.798Z,24.10
2023-04-25T06:10:22.195Z,17.83
2023-04-25T06:12:50.413Z,19.20
2023-04-25T06:17:51.416Z,23.13
2023-04-25T06:20:19.454Z,20.67
2023-04-25T06:22:47.452Z,21.83
2023-04-25T06:25:15.335Z,22.83
2023-04-25T06:27:43.481Z,23.75
2023-04-25T06:30:13.435Z,23.42
2023-04-25T06:32:41.991Z,24.17
2023-04-25T06:35:10.470Z,19.50
2023-04-25T06:37:38.885Z,23.83
2023-04-25T06:40:07.367Z,20.33
2023-04-25T06:42:35.541Z,19.70
2023-04-25T06:45:23.605Z,18.07
2023-04-25T06:47:51.883Z,19.60
2023-04-25T06:50:19.755Z,18.92
2023-04-25T06:52:48.871Z,18.73
2023-04-25T06:55:16.660Z,18.98
2023-04-25T06:58:01.431Z,17.87
2023-04-25T07:00:48.029Z,17.17
2023-04-25T07:03:16.504Z,22.42
2023-04-25T07:05:47.191Z,17.17
2023-04-25T07:08:15.804Z,21.17
2023-04-25T07:10:44.403Z,21.00
2023-04-25T07:13:13.522Z,16.92
2023-04-25T07:15:41.506Z,18.13
2023-04-25T07:18:09.894Z,18.73
2023-04-25T07:20:37.552Z,17.00
2023-04-25T07:23:05.725Z,20.40
2023-04-25T07:25:33.767Z,26.27
2023-04-25T07:28:02.815Z,29.63
2023-04-25T07:30:30.454Z,20.75
2023-04-25T07:32:59.989Z,18.40
2023-04-25T07:35:28.221Z,18.03
2023-04-25T07:37:57.059Z,14.55
2023-04-25T07:40:26.020Z,15.20
2023-04-25T07:42:58.686Z,16.10
2023-04-25T07:45:37.888Z,18.08
2023-04-25T07:48:07.145Z,14.97
2023-04-25T07:50:38.005Z,16.42
2023-04-25T07:53:06.324Z,17.08
2023-04-25T07:55:41.516Z,16.02
2023-04-25T07:58:23.333Z,15.85
2023-04-25T08:00:56.385Z,18.53
2023-04-25T08:03:44.667Z,13.05
2023-04-25T08:06:21.031Z,13.60
2023-04-25T08:09:17.377Z,15.10
2023-04-25T08:11:45.868Z,15.30
2023-04-25T08:14:16.611Z,12.37
2023-04-25T08:16:46.271Z,15.15
2023-04-25T08:19:14.819Z,12.00
2023-04-25T08:21:43.276Z,11.77
2023-04-25T08:24:16.309Z,11.57
2023-04-25T08:26:45.199Z,12.87
2023-04-25T08:29:17.062Z,12.77
2023-04-25T08:31:46.373Z,13.68
2023-04-25T08:34:15.241Z,11.48
2023-04-25T08:36:46.949Z,12.05
2023-04-25T08:39:26.464Z,10.33
2023-04-25T08:42:19.693Z,11.05
2023-04-25T08:44:50.060Z,9.40
2023-04-25T08:47:23.259Z,12.35
2023-04-25T08:50:01.201Z,9.68
2023-04-25T08:52:36.437Z,7.20
2023-04-25T08:55:06.401Z,7.53
2023-04-25T08:57:35.915Z,6.20
2023-04-25T09:00:05.298Z,7.55
2023-04-25T09:02:37.061Z,7.18
2023-04-25T09:05:05.950Z,8.30
2023-04-25T09:07:34.415Z,9.50
2023-04-25T09:10:04.631Z,9.52
2023-04-25T09:12:37.219Z,8.80
2023-04-25T09:15:20.463Z,9.88
2023-04-25T09:18:10.406Z,8.23
2023-04-25T09:21:00.178Z,7.65
2023-04-25T09:23:41.258Z,8.18
2023-04-25T09:26:10.879Z,6.88
2023-04-25T09:28:40.017Z,8.70
2023-04-25T09:31:08.125Z,9.30
2023-04-25T09:33:45.122Z,6.70
2023-04-25T09:36:13.176Z,5.65
2023-04-25T09:38:53.512Z,6.50
2023-04-25T09:41:26.697Z,6.25
2023-04-25T09:44:01.536Z,8.53
2023-04-25T09:47:22.864Z,7.32
2023-04-25T09:49:52.413Z,5.40
2023-04-25T09:52:25.610Z,6.32
2023-04-25T09:55:26.643Z,8.00
2023-04-25T09:58:02.970Z,7.33
2023-04-25T10:00:33.439Z,6.72
2023-04-25T10:03:13.432Z,6.43
2023-04-25T10:06:04.534Z,6.53
2023-04-25T10:08:37.755Z,6.20
2023-04-25T10:11:09.212Z,7.07
2023-04-25T10:13:37.904Z,6.10
2023-04-25T10:16:06.892Z,6.95
2023-04-25T10:18:35.100Z,6.03
2023-04-25T10:21:06.291Z,5.50
2023-04-25T10:23:35.934Z,6.13
2023-04-25T10:26:04.024Z,7.55
2023-04-25T10:29:07.387Z,5.53
2023-04-25T10:31:47.099Z,7.40
2023-04-25T10:34:15.206Z,7.70
2023-04-25T10:36:43.276Z,4.63
2023-04-25T10:39:11.294Z,5.97
2023-04-25T10:41:56.745Z,7.38
2023-04-25T10:44:28.229Z,6.43
2023-04-25T10:46:58.397Z,6.53
2023-04-25T10:49:36.732Z,8.47
2023-04-25T10:52:18.400Z,6.38
2023-04-25T10:54:59.507Z,8.52
2023-04-25T10:57:42.956Z,8.27
2023-04-25T11:00:18.054Z,7.45
2023-04-25T11:02:55.445Z,8.27
2023-04-25T11:05:26.552Z,5.68
2023-04-25T11:08:06.295Z,5.53
2023-04-25T11:10:38.873Z,4.45
2023-04-25T11:13:14.977Z,4.90
2023-04-25T11:15:43.223Z,7.63
2023-04-25T11:18:17.745Z,5.47
2023-04-25T11:20:50.724Z,4.53
2023-04-25T11:23:19.836Z,6.85
2023-04-25T11:25:50.993Z,4.80
2023-04-25T11:28:28.380Z,6.60
2023-04-25T11:30:57.908Z,4.43
2023-04-25T11:33:27.342Z,5.55
2023-04-25T11:35:59.885Z,6.47
2023-04-25T11:38:29.517Z,3.92
2023-04-25T11:40:57.303Z,12.63
2023-04-25T11:43:25.772Z,4.07
2023-04-25T11:45:53.835Z,7.53
2023-04-25T11:48:26.029Z,9.82
2023-04-25T11:50:56.653Z,7.72
2023-04-25T11:53:26.276Z,8.10
2023-04-25T11:55:55.085Z,7.28
2023-04-25T11:58:23.369Z,5.75
2023-04-25T12:00:51.386Z,5.70
2023-04-25T12:03:20.847Z,8.93
2023-04-25T12:05:49.211Z,5.77
2023-04-25T12:08:18.813Z,8.13
2023-04-25T12:10:48.115Z,6.18
2023-04-25T12:13:24.278Z,6.55
2023-04-25T12:16:03.726Z,6.78
2023-04-25T12:18:32.087Z,10.57
2023-04-25T12:21:00.074Z,7.10
2023-04-25T12:23:29.680Z,8.63
2023-04-25T12:26:00.604Z,7.15
2023-04-25T12:28:29.107Z,7.72
2023-04-25T12:31:02.215Z,6.80
2023-04-25T12:33:35.961Z,8.10
2023-04-25T12:36:15.761Z,4.97
2023-04-25T12:38:47.329Z,5.32
2023-04-25T12:41:21.288Z,5.93
2023-04-25T12:43:53.269Z,5.93
2023-04-25T12:46:24.324Z,3.88
2023-04-25T12:49:17.726Z,4.03
2023-04-25T12:51:56.951Z,4.18
2023-04-25T12:54:25.099Z,2.88
2023-04-25T12:56:56.320Z,5.50
2023-04-25T12:59:24.630Z,3.97
2023-04-25T13:01:52.396Z,3.88
2023-04-25T13:04:22.545Z,4.00
2023-04-25T13:06:54.822Z,3.58
2023-04-25T13:09:23.038Z,4.67
2023-04-25T13:11:50.983Z,4.15
2023-04-25T13:14:19.446Z,3.70
2023-04-25T13:16:47.424Z,2.72
2023-04-25T13:19:17.595Z,3.30
2023-04-25T13:21:45.791Z,2.53
2023-04-25T13:24:14.511Z,2.10
2023-04-25T13:26:43.466Z,3.50
2023-04-25T13:29:11.831Z,3.10
2023-04-25T13:31:39.620Z,4.85
2023-04-25T13:34:10.063Z,2.87
2023-04-25T13:36:38.578Z,3.53
2023-04-25T13:39:07.101Z,3.80
2023-04-25T13:41:35.229Z,3.20
2023-04-25T13:44:05.164Z,1.92
2023-04-25T13:46:47.684Z,4.10
2023-04-25T13:49:19.221Z,4.18
2023-04-25T13:51:47.298Z,2.92
2023-04-25T13:54:19.201Z,1.23
2023-04-25T13:56:48.230Z,1.40
2023-04-25T13:59:16.620Z,1.00
2023-04-25T14:01:44.442Z,0.90
2023-04-25T14:04:12.706Z,1.25
2023-04-25T14:06:42.839Z,0.90
2023-04-25T14:09:11.776Z,1.02
2023-04-25T14:11:39.705Z,2.23
2023-04-25T14:14:07.920Z,2.17
2023-04-25T14:16:36.633Z,3.38
2023-04-25T14:19:05.231Z,3.60
2023-04-25T14:21:37.052Z,2.28
2023-04-25T14:24:06.844Z,3.23
2023-04-25T14:27:29.151Z,3.88
2023-04-25T14:29:57.985Z,3.05
2023-04-25T14:32:25.977Z,3.70
2023-04-25T14:34:54.416Z,2.42
2023-04-25T14:37:22.304Z,2.83
2023-04-25T14:39:51.842Z,1.33
2023-04-25T14:42:19.597Z,1.60
2023-04-25T14:44:48.256Z,1.27
2023-04-25T14:47:17.070Z,1.88
2023-04-25T14:50:06.780Z,4.27
2023-04-25T14:53:12.579Z,1.25
2023-04-25T14:55:41.824Z,0.90
2023-04-25T14:58:09.450Z,1.25
2023-04-25T15:00:38.708Z,1.02
2023-04-25T15:03:07.058Z,1.73
2023-04-25T15:05:36.074Z,3.75
2023-04-25T15:08:04.378Z,0.90
2023-04-25T15:10:32.975Z,0.95
2023-04-25T15:13:16.311Z,1.50
2023-04-25T15:15:45.865Z,1.47
2023-04-25T15:18:14.420Z,1.27
2023-04-25T15:20:42.384Z,1.00
2023-04-25T15:23:10.150Z,0.98
2023-04-25T15:25:38.222Z,1.17
2023-04-25T15:28:06.050Z,1.97
2023-04-25T15:30:34.097Z,1.80
2023-04-25T15:33:02.031Z,0.80
2023-04-25T15:35:30.158Z,1.60
2023-04-25T15:37:57.818Z,1.88
2023-04-25T15:40:43.086Z,1.27
2023-04-25T15:43:16.403Z,3.58
2023-04-25T15:46:33.462Z,2.60
2023-04-25T15:49:01.421Z,5.40
2023-04-25T15:51:29.853Z,4.18
2023-04-25T15:53:57.962Z,5.23
2023-04-25T15:56:26.221Z,4.75
2023-04-25T15:58:55.644Z,6.30
2023-04-25T16:01:26.629Z,1.55
2023-04-25T16:03:54.800Z,30.45
2023-04-25T16:06:23.046Z,5.27
2023-04-25T16:08:52.164Z,6.45
2023-04-25T16:11:20.467Z,3.55
2023-04-25T16:13:48.353Z,3.70
2023-04-25T16:16:16.762Z,3.58
2023-04-25T16:18:44.690Z,3.60
2023-04-25T16:21:17.335Z,2.50
2023-04-25T16:23:45.385Z,5.50
2023-04-25T16:26:13.445Z,6.38
2023-04-25T16:28:41.352Z,4.45
2023-04-25T16:31:10.854Z,5.33
2023-04-25T16:33:38.892Z,1.80
2023-04-25T16:36:07.628Z,1.38
2023-04-25T16:38:36.595Z,2.70
2023-04-25T16:41:56.258Z,3.40
2023-04-25T16:44:24.248Z,3.03
2023-04-25T16:46:52.765Z,2.05
2023-04-25T16:49:20.984Z,3.13
2023-04-25T16:51:50.713Z,6.75
2023-04-25T16:54:18.829Z,5.38
2023-04-25T17:00:05.487Z,3.03
2023-04-25T17:02:33.769Z,3.35
2023-04-25T17:05:08.198Z,3.28
2023-04-25T17:07:36.581Z,8.80
2023-04-25T17:10:05.103Z,3.67
2023-04-25T17:12:34.014Z,4.35
2023-04-25T17:15:02.654Z,3.67
2023-04-25T17:17:41.074Z,4.10
2023-04-25T17:20:14.118Z,5.93
2023-04-25T17:22:42.756Z,4.13
2023-04-25T17:25:11.791Z,4.25
2023-04-25T17:27:40.635Z,3.10
2023-04-25T17:30:09.133Z,4.38
2023-04-25T17:32:37.222Z,3.08
2023-04-25T17:35:10.249Z,4.37
2023-04-25T17:40:45.636Z,3.70
2023-04-25T17:43:19.133Z,5.57
2023-04-25T17:45:52.402Z,7.80
2023-04-25T17:48:27.068Z,5.67
2023-04-25T17:51:07.940Z,3.70
2023-04-25T17:54:40.273Z,4.30
2023-04-25T17:57:44.056Z,3.08
2023-04-25T18:00:18.978Z,4.43
2023-04-25T18:02:49.043Z,3.40
2023-04-25T18:05:17.424Z,4.07
2023-04-25T18:08:32.128Z,4.13
2023-04-25T18:11:57.107Z,5.95
2023-04-25T18:14:26.800Z,5.20
2023-04-25T18:16:55.890Z,4.30
2023-04-25T18:19:24.060Z,6.95
2023-04-25T18:53:49.498Z,4.63
2023-04-25T19:14:23.689Z,6.80
2023-04-25T19:16:51.542Z,6.10
2023-04-25T19:19:19.583Z,6.60
2023-04-25T19:21:47.489Z,9.60
2023-04-25T19:24:15.651Z,6.75
2023-04-25T19:26:43.662Z,6.15
2023-04-25T19:29:15.138Z,5.60
2023-04-25T19:31:46.058Z,5.45
2023-04-25T19:34:14.525Z,6.53
2023-04-25T19:36:43.043Z,6.25
2023-04-25T19:39:11.683Z,6.90
2023-04-25T19:41:39.615Z,6.63
2023-04-25T19:44:09.547Z,6.35
2023-04-25T19:46:37.827Z,8.77
2023-04-25T19:49:09.297Z,6.57
2023-04-25T19:51:37.686Z,5.47
2023-04-25T19:54:06.023Z,6.50
2023-04-25T19:56:34.218Z,7.05
2023-04-25T19:59:02.265Z,7.00
2023-04-25T20:01:30.900Z,6.57
2023-04-25T20:03:59.128Z,6.38
2023-04-25T20:06:27.628Z,8.90
2023-04-25T20:08:55.880Z,7.00
2023-04-25T20:11:23.775Z,8.02
2023-04-25T20:13:52.159Z,8.35
2023-04-25T20:16:22.089Z,5.95
2023-04-25T20:18:53.601Z,8.73
2023-04-25T20:21:22.846Z,7.18
2023-04-25T20:23:51.158Z,6.75
2023-04-25T20:26:19.667Z,10.63
2023-04-25T20:28:48.457Z,7.97
2023-04-25T20:31:21.265Z,7.13
2023-04-25T20:33:49.893Z,7.35
2023-04-25T20:36:17.692Z,7.68
2023-04-25T20:38:46.085Z,6.15
2023-04-25T20:41:13.848Z,5.32
2023-04-25T20:43:42.583Z,7.40
2023-04-25T20:46:10.862Z,5.95
2023-04-25T20:48:38.941Z,7.35
2023-04-25T20:51:07.726Z,6.13
2023-04-25T20:53:35.989Z,5.50
2023-04-25T20:56:04.738Z,8.97
2023-04-25T20:58:33.658Z,6.07
2023-04-25T21:01:01.803Z,6.40
2023-04-25T21:03:30.685Z,5.10
2023-04-25T21:05:58.697Z,7.72
2023-04-25T21:08:26.705Z,5.07
2023-04-25T21:10:56.628Z,5.38
2023-04-25T21:13:27.250Z,5.15
2023-04-25T21:15:55.761Z,5.30
2023-04-25T21:18:23.912Z,5.65
2023-04-25T21:20:51.776Z,5.50
2023-04-25T21:23:20.006Z,5.03
2023-04-25T21:25:49.199Z,6.80
2023-04-25T21:28:17.329Z,5.72
2023-04-25T21:30:45.586Z,6.55
2023-04-25T21:33:14.526Z,6.17
2023-04-25T21:35:42.633Z,6.55
2023-04-25T21:38:10.746Z,5.72
2023-04-25T21:40:38.594Z,6.10
2023-04-25T21:43:07.090Z,5.85
2023-04-25T21:45:43.350Z,6.63
2023-04-25T21:48:23.754Z,5.32
2023-04-25T21:50:51.475Z,6.07
2023-04-25T21:53:19.602Z,6.32
2023-04-25T21:55:47.510Z,6.22
2023-04-25T21:58:15.548Z,5.17
2023-04-25T22:00:44.727Z,5.53
2023-04-25T22:03:15.350Z,5.20
2023-04-25T22:05:43.136Z,7.68
2023-04-25T22:08:11.085Z,5.15
2023-04-25T22:10:40.430Z,4.60
2023-04-25T22:13:08.403Z,5.65
2023-04-25T22:15:36.057Z,6.70
2023-04-25T22:18:05.322Z,7.30
2023-04-25T22:20:33.595Z,4.75
2023-04-25T22:23:02.308Z,4.53
2023-04-25T22:25:30.252Z,5.32
2023-04-25T22:27:58.402Z,4.50
2023-04-25T22:30:26.095Z,4.72
2023-04-25T22:32:54.504Z,5.32
2023-04-25T22:35:22.685Z,4.47
2023-04-25T22:37:50.620Z,4.05
2023-04-25T22:40:18.676Z,4.00
2023-04-25T22:42:47.014Z,5.45
2023-04-25T22:45:15.134Z,4.68
2023-04-25T22:47:43.443Z,5.03
2023-04-25T22:50:17.158Z,4.40
2023-04-25T22:52:46.977Z,5.93
2023-04-25T22:55:14.847Z,5.82
2023-04-25T22:57:43.359Z,7.70
2023-04-25T23:00:20.469Z,4.30
2023-04-25T23:02:50.124Z,6.00
2023-04-25T23:05:18.380Z,5.57
2023-04-25T23:07:46.714Z,3.70
2023-04-25T23:10:14.573Z,3.60
2023-04-25T23:12:43.118Z,3.87
2023-04-25T23:15:13.401Z,4.20
2023-04-25T23:17:41.486Z,3.97
2023-04-25T23:20:11.240Z,5.20
2023-04-25T23:22:39.894Z,3.85
2023-04-25T23:25:08.573Z,4.17
2023-04-25T23:27:37.364Z,3.10
2023-04-25T23:30:06.698Z,3.22
2023-04-25T23:32:35.183Z,3.53
2023-04-25T23:35:03.310Z,3.58
2023-04-25T23:37:40.850Z,3.17
2023-04-25T23:40:15.654Z,2.83
2023-04-25T23:42:43.827Z,2.85
2023-04-25T23:45:11.575Z,3.38
2023-04-25T23:47:39.560Z,2.17
2023-04-25T23:50:08.435Z,2.63
2023-04-25T23:52:36.470Z,2.08
2023-04-25T23:55:05.769Z,2.40
2023-04-25T23:57:34.125Z,2.40
